Time;durP1;ratioP1;P1;durP2;ratioP2;P2;SDS_P1;SDS_P2;PMS_P1;PMS_P2;Temp;Humidity;BMP_temperature;BMP_pressure;BME280_temperature;BME280_humidity;BME280_pressure;Samples;Min_cycle;Max_cycle;Signal;HPM_P1;HPM_P2
2021/07/14 14:48:05;;;;;;;18.95;10.40;;;;;;;39.33;26.22;97357.97;127167;1095;66026;-69
2021/07/14 14:52:29;;;;;;;19.30;10.40;;;;;;;39.22;27.77;97354.52;127195;1093;62002;-74
2021/07/14 14:54:57;;;;;;;21.90;11.33;;;;;;;40.92;25.42;97356.00;126649;1097;62499;-73
2021/07/14 14:57:24;;;;;;;16.63;10.13;;;;;;;41.57;24.09;97353.23;114745;1095;8078773;-69
2021/07/14 14:59:52;;;;;;;15.85;10.20;;;;;;;42.31;22.51;97350.63;126819;1095;62495;-71
2021/07/14 15:02:20;;;;;;;13.08;9.03;;;;;;;42.47;22.31;97351.31;126851;1095;63732;-67
2021/07/14 15:04:49;;;;;;;13.10;9.83;;;;;;;42.79;22.56;97352.66;126745;1095;62501;-68
2021/07/14 15:07:15;;;;;;;12.57;8.73;;;;;;;42.23;22.86;97345.98;126745;1095;62550;-78
2021/07/14 15:09:51;;;;;;;12.23;7.10;;;;;;;42.46;19.90;97344.00;126739;1096;62480;-75
2021/07/14 15:12:20;;;;;;;10.30;7.35;;;;;;;42.69;19.60;97339.85;125266;1095;1619363;-74
2021/07/14 15:14:48;;;;;;;9.50;6.70;;;;;;;42.34;19.68;97350.05;126846;1095;63185;-72
2021/07/14 15:17:14;;;;;;;11.43;6.63;;;;;;;42.46;19.00;97338.92;126835;1095;62509;-73
2021/07/14 15:19:42;;;;;;;10.73;6.30;;;;;;;41.72;19.95;97340.11;126915;1095;62556;-75
2021/07/14 15:22:19;;;;;;;10.50;6.58;;;;;;;42.07;19.43;97333.66;126468;1098;85871;-73
2021/07/14 15:24:47;;;;;;;7.65;6.20;;;;;;;42.35;19.40;97330.43;126835;1095;62599;-72
2021/07/14 15:30:00;;;;;;;8.87;7.00;;;;;;;41.64;21.04;97325.17;128392;1095;62463;-74
2021/07/14 15:32:28;;;;;;;13.25;8.43;;;;;;;40.43;24.77;97324.62;128400;1095;61214;-67
2021/07/14 15:34:55;;;;;;;11.08;7.58;;;;;;;39.47;25.69;97332.64;128446;1095;62520;-68
2021/07/14 15:37:21;;;;;;;11.73;8.43;;;;;;;38.68;28.45;97337.73;128409;1095;61360;-69
2021/07/14 15:39:51;;;;;;;16.40;8.67;;;;;;;37.98;28.88;97320.63;128443;1093;61588;-69
2021/07/14 15:42:21;;;;;;;14.83;8.70;;;;;;;37.60;29.31;97328.47;128433;1096;61308;-69
2021/07/14 15:44:48;;;;;;;13.10;7.00;;;;;;;38.01;25.24;97325.14;128386;1095;62494;-74
2021/07/14 15:47:15;;;;;;;9.73;7.00;;;;;;;38.14;25.85;97330.25;128359;1095;61221;-73
2021/07/14 15:49:44;;;;;;;8.90;7.10;;;;;;;37.89;25.40;97336.00;128430;1095;62458;-71
2021/07/14 15:52:11;;;;;;;10.87;7.20;;;;;;;38.27;25.76;97325.97;128404;1095;61068;-73
2021/07/14 15:54:39;;;;;;;11.30;7.08;;;;;;;38.33;25.17;97332.09;128386;1095;61199;-71
2021/07/14 15:57:05;;;;;;;12.73;6.97;;;;;;;38.49;25.19;97333.03;128353;1095;63154;-71
2021/07/14 15:59:31;;;;;;;9.97;6.90;;;;;;;38.48;25.37;97327.88;128279;1096;62490;-71
2021/07/14 16:01:58;;;;;;;10.60;7.30;;;;;;;38.50;25.00;97327.99;128335;1098;61341;-71
2021/07/14 16:04:25;;;;;;;12.00;6.83;;;;;;;38.42;25.03;97328.27;128372;1098;61184;-72
2021/07/14 16:06:51;;;;;;;9.07;6.83;;;;;;;38.16;25.83;97324.59;128315;1098;62071;-80
2021/07/14 16:09:19;;;;;;;12.78;7.05;;;;;;;37.99;26.47;97331.55;128297;1098;62504;-72
2021/07/14 16:11:46;;;;;;;14.57;7.03;;;;;;;37.69;25.74;97329.70;128281;1097;61235;-72
2021/07/14 16:14:14;;;;;;;12.17;6.80;;;;;;;37.47;26.20;97321.20;128288;1098;62510;-73
2021/07/14 16:16:41;;;;;;;8.33;6.85;;;;;;;37.07;26.96;97324.45;128350;1096;61272;-73
2021/07/14 16:19:10;;;;;;;17.97;13.57;;;;;;;36.93;27.04;97327.19;128366;1098;62574;-72
2021/07/14 16:21:37;;;;;;;11.53;8.30;;;;;;;36.66;27.64;97327.63;128374;1096;61245;-72
2021/07/14 16:24:05;;;;;;;12.53;10.28;;;;;;;36.05;31.57;97326.48;128361;1096;62431;-67
2021/07/14 16:26:31;;;;;;;17.87;11.97;;;;;;;35.11;34.22;97328.67;128366;1098;61535;-67
2021/07/14 16:28:59;;;;;;;16.35;10.10;;;;;;;34.43;33.37;97330.20;128349;1098;61130;-71
2021/07/14 16:31:25;;;;;;;21.55;10.10;;;;;;;33.97;33.64;97333.98;128595;1098;61335;-72
2021/07/14 16:33:53;;;;;;;12.60;9.33;;;;;;;33.56;34.34;97333.73;128587;1098;61552;-71
2021/07/14 16:36:19;;;;;;;13.03;9.25;;;;;;;33.25;34.69;97333.48;128566;1098;62472;-68
2021/07/14 16:38:47;;;;;;;11.93;8.98;;;;;;;32.99;34.73;97334.27;128372;1096;61002;-71
2021/07/14 16:41:13;;;;;;;11.48;8.60;;;;;;;32.70;34.71;97337.73;128383;1096;62433;-68
2021/07/14 16:43:41;;;;;;;11.40;9.05;;;;;;;32.52;35.29;97342.00;128493;1098;61298;-67
2021/07/14 16:46:08;;;;;;;14.13;9.90;;;;;;;32.34;35.71;97337.65;128426;1098;61199;-70
2021/07/14 16:48:35;;;;;;;10.63;9.13;;;;;;;32.15;35.81;97323.91;128367;1097;62479;-71
2021/07/14 16:51:01;;;;;;;13.43;9.58;;;;;;;32.04;36.20;97325.17;128379;1098;62509;-71
2021/07/14 16:53:27;;;;;;;13.63;9.60;;;;;;;31.87;36.85;97328.04;128364;1097;61320;-71
2021/07/14 16:55:54;;;;;;;15.43;8.90;;;;;;;31.76;37.72;97325.67;128334;1096;62101;-71
2021/07/14 16:58:21;;;;;;;13.53;9.53;;;;;;;31.61;38.64;97320.85;128316;1098;61265;-67
2021/07/14 17:00:47;;;;;;;13.53;9.57;;;;;;;31.54;39.09;97319.56;128271;1098;61443;-71
2021/07/14 17:03:16;;;;;;;17.90;9.60;;;;;;;31.46;39.57;97321.75;128367;1097;62081;-71
2021/07/14 17:05:47;;;;;;;13.20;9.58;;;;;;;31.36;39.99;97309.44;128373;1098;61238;-68
2021/07/14 17:08:15;;;;;;;15.55;9.33;;;;;;;31.26;40.23;97317.92;128329;1097;62604;-66
2021/07/14 17:10:41;;;;;;;15.33;9.13;;;;;;;31.17;40.48;97320.63;128381;1096;60871;-72
2021/07/14 17:13:08;;;;;;;10.20;9.10;;;;;;;31.06;40.77;97321.88;128400;1097;61261;-71
2021/07/14 17:15:34;;;;;;;11.80;9.20;;;;;;;31.01;40.76;97322.09;128296;1098;62499;-71
2021/07/14 17:18:03;;;;;;;11.93;8.80;;;;;;;30.92;40.89;97312.07;128327;1096;60970;-67
2021/07/14 17:20:30;;;;;;;14.18;8.58;;;;;;;30.80;41.02;97314.62;128364;1098;62431;-68
2021/07/14 17:22:56;;;;;;;13.50;8.45;;;;;;;30.72;40.68;97322.50;128408;1098;61189;-72
2021/07/14 17:25:25;;;;;;;12.15;8.10;;;;;;;30.67;40.83;97326.31;128351;1098;61239;-67
2021/07/14 17:27:51;;;;;;;10.83;8.30;;;;;;;30.59;41.07;97319.88;128416;1098;61783;-68
2021/07/14 17:30:25;;;;;;;9.23;8.10;;;;;;;30.50;40.77;97324.09;128300;1097;60986;-67
2021/07/14 17:32:51;;;;;;;11.87;7.93;;;;;;;30.48;40.35;97323.16;128389;1096;62505;-70
2021/07/14 17:35:18;;;;;;;14.55;8.30;;;;;;;30.37;40.66;97322.27;128344;1096;62286;-71
2021/07/14 17:37:44;;;;;;;12.50;8.05;;;;;;;30.29;40.31;97323.63;128225;1096;61587;-66
2021/07/14 17:40:11;;;;;;;11.75;7.80;;;;;;;30.20;40.00;97319.30;128376;1098;61218;-70
2021/07/14 17:42:38;;;;;;;11.07;7.67;;;;;;;30.15;39.81;97320.26;128248;1096;61857;-70
2021/07/14 17:45:06;;;;;;;10.43;6.90;;;;;;;30.05;39.08;97317.27;128411;1096;62431;-67
2021/07/14 17:47:33;;;;;;;10.27;6.93;;;;;;;29.94;39.15;97314.79;128424;1098;62463;-71
2021/07/14 17:49:59;;;;;;;10.90;6.70;;;;;;;29.86;38.61;97319.02;128437;1096;61332;-68
2021/07/14 17:52:26;;;;;;;10.93;6.60;;;;;;;29.77;38.46;97312.55;128345;1098;62610;-67
2021/07/14 17:54:52;;;;;;;8.55;6.40;;;;;;;29.71;38.67;97322.66;128435;1096;60883;-68
2021/07/14 17:57:19;;;;;;;8.73;6.87;;;;;;;29.65;39.01;97319.27;128378;1096;62594;-67
2021/07/14 17:59:47;;;;;;;9.13;7.03;;;;;;;29.56;38.93;97322.69;128336;1096;62435;-72
2021/07/14 18:02:13;;;;;;;9.40;6.67;;;;;;;29.51;38.76;97323.66;128299;1098;61188;-68
2021/07/14 18:04:40;;;;;;;9.10;6.50;;;;;;;29.45;39.17;97320.98;128327;1097;62451;-70
2021/07/14 18:07:06;;;;;;;9.10;6.85;;;;;;;29.39;39.13;97323.25;128407;1097;61186;-71
2021/07/14 18:09:33;;;;;;;11.15;6.60;;;;;;;29.33;39.31;97325.55;128406;1096;61345;-67
2021/07/14 18:11:59;;;;;;;12.43;6.83;;;;;;;29.31;39.24;97323.27;128304;1097;61313;-72
2021/07/14 18:14:26;;;;;;;12.97;7.10;;;;;;;29.28;39.14;97330.11;128373;1098;61231;-68
2021/07/14 18:16:52;;;;;;;11.50;6.40;;;;;;;29.22;39.78;97337.32;128406;1096;61189;-69
2021/07/14 18:19:20;;;;;;;21.70;9.80;;;;;;;29.21;39.85;97332.95;128405;1098;61299;-74
2021/07/14 18:21:46;;;;;;;21.45;7.90;;;;;;;29.22;40.59;97331.62;128375;1095;61843;-71
2021/07/14 18:24:12;;;;;;;10.95;6.70;;;;;;;29.17;40.10;97339.80;128297;1095;61832;-70
2021/07/14 18:26:39;;;;;;;12.53;6.63;;;;;;;29.10;40.10;97329.16;128263;1095;61678;-70
2021/07/14 18:29:07;;;;;;;15.93;8.03;;;;;;;29.08;41.27;97340.35;128328;1095;62523;-73
2021/07/14 18:31:34;;;;;;;12.73;7.20;;;;;;;29.08;40.49;97337.50;128483;1095;61988;-74
2021/07/14 18:34:00;;;;;;;15.40;7.40;;;;;;;28.92;40.64;97343.78;128383;1095;61310;-70
2021/07/14 18:36:26;;;;;;;12.85;7.30;;;;;;;28.91;40.84;97343.02;128412;1095;62453;-70
2021/07/14 18:38:52;;;;;;;13.00;7.20;;;;;;;28.80;40.77;97355.50;128480;1095;61214;-72
2021/07/14 18:41:23;;;;;;;12.93;7.80;;;;;;;28.83;41.82;97345.81;128414;1095;61246;-68
2021/07/14 18:43:51;;;;;;;16.50;11.70;;;;;;;28.78;41.27;97351.70;128408;1095;61286;-71
2021/07/14 18:46:19;;;;;;;19.80;8.73;;;;;;;28.71;41.09;97352.42;128517;1095;61221;-74
2021/07/14 18:48:46;;;;;;;24.60;9.10;;;;;;;28.69;41.66;97352.23;128302;1096;62498;-76
2021/07/14 18:51:12;;;;;;;25.35;7.90;;;;;;;28.53;41.52;97352.19;128522;1095;61340;-74
2021/07/14 18:53:38;;;;;;;31.65;9.15;;;;;;;28.46;42.31;97349.33;128442;1095;61261;-74
2021/07/14 18:56:04;;;;;;;38.00;8.20;;;;;;;28.37;42.85;97344.95;128421;1096;61240;-78
2021/07/14 18:58:34;;;;;;;34.83;9.07;;;;;;;28.32;42.89;97351.55;128418;1095;61188;-79
2021/07/14 19:01:01;;;;;;;29.30;8.80;;;;;;;28.19;42.88;97354.53;128390;1095;61801;-72
2021/07/14 19:03:28;;;;;;;37.10;9.40;;;;;;;28.15;43.07;97359.80;128150;1095;62511;-74
2021/07/14 19:05:54;;;;;;;22.55;7.85;;;;;;;27.89;42.79;97361.58;128389;1095;61405;-74
2021/07/14 19:08:21;;;;;;;21.13;7.30;;;;;;;27.58;43.30;97354.14;128404;1095;61209;-74
2021/07/14 19:10:51;;;;;;;18.47;8.20;;;;;;;27.50;44.30;97359.78;128441;1095;61256;-75
2021/07/14 19:13:18;;;;;;;22.87;8.53;;;;;;;27.58;44.04;97359.83;128411;1095;61205;-71
2021/07/14 19:15:45;;;;;;;16.97;8.20;;;;;;;27.59;44.05;97361.34;128290;1095;61260;-70
2021/07/14 19:18:14;;;;;;;17.60;8.50;;;;;;;27.49;43.97;97368.88;128379;1095;61275;-70
2021/07/14 19:20:41;;;;;;;16.65;8.45;;;;;;;27.51;44.22;97360.55;128350;1096;61359;-69
2021/07/14 19:23:08;;;;;;;12.40;8.23;;;;;;;27.33;44.25;97365.91;128371;1095;61227;-69
2021/07/14 19:25:34;;;;;;;19.17;10.07;;;;;;;27.34;44.46;97370.27;128358;1095;62568;-68
2021/07/14 19:28:01;;;;;;;13.33;8.67;;;;;;;27.30;45.04;97360.58;128396;1093;61992;-68
2021/07/14 19:30:30;;;;;;;20.47;8.70;;;;;;;27.24;45.42;97360.70;128410;1095;62523;-70
2021/07/14 19:32:57;;;;;;;21.07;8.50;;;;;;;27.01;46.75;97362.59;128486;1095;60877;-70
2021/07/14 19:35:26;;;;;;;17.93;10.07;;;;;;;26.97;46.24;97359.30;128446;1098;61267;-71
2021/07/14 19:37:54;;;;;;;25.83;13.83;;;;;;;26.72;46.19;97334.05;128257;1095;60892;-71
2021/07/14 19:40:20;;;;;;;19.47;10.17;;;;;;;26.76;47.04;97357.22;128424;1095;61474;-71
2021/07/14 19:42:49;;;;;;;22.13;9.80;;;;;;;26.68;46.70;97352.76;128430;1098;61290;-69
2021/07/14 19:45:17;;;;;;;21.77;12.98;;;;;;;26.66;47.41;97353.31;128427;1095;61645;-71
2021/07/14 19:47:43;;;;;;;19.03;10.07;;;;;;;26.71;47.35;97358.09;128482;1095;61317;-74
2021/07/14 19:50:10;;;;;;;22.67;10.20;;;;;;;26.55;47.93;97353.56;128420;1095;61203;-75
2021/07/14 19:52:36;;;;;;;16.57;10.30;;;;;;;26.57;47.78;97356.64;128436;1095;61188;-69
2021/07/14 19:55:07;;;;;;;15.77;10.10;;;;;;;26.44;48.25;97359.51;128423;1095;62466;-73
2021/07/14 19:57:35;;;;;;;16.77;10.03;;;;;;;26.47;48.56;97364.84;128400;1095;61346;-71
2021/07/14 20:00:02;;;;;;;21.20;10.10;;;;;;;26.33;49.39;97354.80;128420;1095;62495;-73
2021/07/14 20:02:28;;;;;;;15.43;10.27;;;;;;;26.38;49.23;97358.84;128424;1095;61696;-69
2021/07/14 20:04:55;;;;;;;15.40;10.53;;;;;;;26.42;48.95;97353.63;128404;1095;61826;-73
2021/07/14 20:07:21;;;;;;;15.47;10.50;;;;;;;26.41;49.20;97360.61;128426;1098;60918;-75
2021/07/14 20:09:47;;;;;;;21.20;12.70;;;;;;;26.42;50.21;97356.46;128415;1095;62440;-70
2021/07/14 20:12:13;;;;;;;18.53;10.13;;;;;;;26.36;48.95;97352.96;128386;1095;61553;-71
2021/07/14 20:14:39;;;;;;;18.70;9.93;;;;;;;26.31;49.21;97354.59;128399;1095;61232;-71
2021/07/14 20:17:06;;;;;;;22.33;10.70;;;;;;;26.29;49.23;97354.38;128371;1095;61270;-70
2021/07/14 20:19:32;;;;;;;16.67;9.27;;;;;;;26.24;49.19;97354.52;128367;1095;62082;-69
2021/07/14 20:21:58;;;;;;;18.13;9.57;;;;;;;26.24;49.46;97351.67;128440;1095;61777;-71
2021/07/14 20:24:25;;;;;;;16.40;9.63;;;;;;;26.07;49.91;97361.30;128432;1095;61361;-73
2021/07/14 20:26:51;;;;;;;18.97;10.20;;;;;;;26.09;49.85;97353.00;128543;1095;60881;-71
2021/07/14 20:29:18;;;;;;;13.00;9.47;;;;;;;26.00;50.16;97355.52;128410;1095;61667;-71
2021/07/14 20:31:46;;;;;;;16.83;9.47;;;;;;;25.88;50.48;97357.83;128495;1095;61345;-71
2021/07/14 20:34:12;;;;;;;15.70;10.07;;;;;;;25.81;51.24;97355.63;128438;1095;61350;-72
2021/07/14 20:36:38;;;;;;;16.47;10.43;;;;;;;25.84;50.78;97349.63;128475;1095;61167;-70
2021/07/14 20:39:05;;;;;;;19.50;9.80;;;;;;;25.71;51.09;97348.89;128483;1095;61515;-72
2021/07/14 20:41:31;;;;;;;18.70;9.87;;;;;;;25.70;51.53;97350.20;128391;1095;61322;-68
2021/07/14 20:43:58;;;;;;;18.93;9.80;;;;;;;25.73;51.24;97349.11;128436;1095;61456;-69
2021/07/14 20:46:24;;;;;;;18.20;10.50;;;;;;;25.71;51.42;97346.81;128439;1095;62439;-70
2021/07/14 20:48:52;;;;;;;22.13;11.93;;;;;;;25.75;52.51;97346.48;128494;1095;61420;-70
2021/07/14 20:51:19;;;;;;;16.30;12.13;;;;;;;25.65;53.27;97356.69;128506;1095;61183;-71
2021/07/14 20:53:45;;;;;;;18.10;11.40;;;;;;;25.41;53.30;97349.92;128436;1095;60921;-71
2021/07/14 20:56:11;;;;;;;17.63;12.47;;;;;;;25.41;53.80;97355.59;128434;1095;62501;-71
2021/07/14 20:58:40;;;;;;;18.67;12.30;;;;;;;25.54;54.02;97361.28;128493;1095;61217;-68
2021/07/14 21:01:07;;;;;;;13.70;11.00;;;;;;;25.57;52.49;97365.09;128467;1095;61236;-72
2021/07/14 21:03:34;;;;;;;17.17;11.00;;;;;;;25.57;52.58;97365.86;128413;1095;61385;-72
2021/07/14 21:06:00;;;;;;;17.37;11.50;;;;;;;25.58;52.47;97372.30;128430;1095;60892;-71
2021/07/14 21:08:27;;;;;;;18.25;10.65;;;;;;;25.48;52.49;97371.94;128451;1095;61402;-73
2021/07/14 21:10:53;;;;;;;23.60;12.33;;;;;;;25.54;52.36;97375.45;128407;1096;61243;-71
2021/07/14 21:13:19;;;;;;;23.80;12.40;;;;;;;25.40;52.83;97367.47;128482;1095;61355;-69
2021/07/14 21:15:46;;;;;;;22.00;12.23;;;;;;;25.33;53.15;97374.56;128473;1097;61250;-70
2021/07/14 21:18:12;;;;;;;16.07;10.93;;;;;;;25.32;53.18;97367.36;128494;1095;61016;-70
2021/07/14 21:20:39;;;;;;;15.97;10.67;;;;;;;25.18;53.65;97365.80;128442;1095;62460;-71
2021/07/14 21:23:06;;;;;;;17.50;11.50;;;;;;;25.05;54.02;97368.59;128460;1095;61212;-72
2021/07/14 21:25:33;;;;;;;18.17;12.23;;;;;;;25.00;54.59;97370.22;128471;1095;61554;-73
2021/07/14 21:27:59;;;;;;;19.33;11.93;;;;;;;24.90;54.61;97366.98;128343;1098;61459;-73
2021/07/14 21:30:35;;;;;;;19.97;11.97;;;;;;;24.84;55.15;97374.81;128182;1097;61724;-75
2021/07/14 21:33:01;;;;;;;18.30;11.83;;;;;;;24.65;55.72;97368.42;128351;1098;61425;-72
2021/07/14 21:35:28;;;;;;;22.20;12.20;;;;;;;24.61;55.93;97367.98;128564;1096;61111;-72
2021/07/14 21:37:54;;;;;;;17.30;12.73;;;;;;;24.56;56.13;97368.80;128122;1098;62457;-71
2021/07/14 21:40:23;;;;;;;27.23;13.70;;;;;;;24.57;56.20;97368.27;128584;1098;60899;-72
2021/07/14 21:42:50;;;;;;;22.78;14.45;;;;;;;24.63;55.82;97366.13;128633;1096;61189;-71
2021/07/14 21:45:16;;;;;;;20.60;12.87;;;;;;;24.65;55.73;97362.76;128550;1098;61209;-71
2021/07/14 21:47:42;;;;;;;24.90;13.53;;;;;;;24.64;55.90;97364.06;128079;1097;62466;-72
2021/07/14 21:50:13;;;;;;;17.40;12.60;;;;;;;24.53;55.75;97367.81;128414;1095;60868;-67
2021/07/14 21:52:39;;;;;;;20.47;13.30;;;;;;;24.38;56.33;97367.51;128416;1096;61794;-68
2021/07/14 21:55:06;;;;;;;21.35;11.98;;;;;;;24.40;56.68;97364.91;128300;1095;60868;-70
2021/07/14 21:57:33;;;;;;;16.57;11.63;;;;;;;24.18;57.49;97371.61;128136;1095;61216;-68
2021/07/14 21:59:59;;;;;;;20.07;12.50;;;;;;;24.22;57.47;97374.89;128128;1095;61000;-67
2021/07/14 22:02:25;;;;;;;24.50;13.30;;;;;;;24.21;57.27;97364.88;128257;1095;62545;-74
2021/07/14 22:04:51;;;;;;;20.70;12.43;;;;;;;24.17;57.45;97369.31;128365;1095;61206;-71
2021/07/14 22:07:20;;;;;;;18.07;12.40;;;;;;;24.16;57.08;97377.04;128185;1095;61589;-67
2021/07/14 22:09:49;;;;;;;23.17;12.67;;;;;;;24.11;57.43;97363.73;128155;1095;61797;-67
2021/07/14 22:12:15;;;;;;;15.30;12.20;;;;;;;23.83;58.35;97371.79;128161;1095;62444;-68
2021/07/14 22:14:47;;;;;;;19.10;12.07;;;;;;;23.54;59.02;97374.14;128291;1095;62599;-69
2021/07/14 22:17:15;;;;;;;17.10;12.50;;;;;;;23.54;59.28;97390.34;128152;1095;61274;-69
2021/07/14 22:19:41;;;;;;;18.13;12.80;;;;;;;23.52;59.09;97385.22;128280;1095;62458;-74
2021/07/14 22:22:08;;;;;;;14.63;12.30;;;;;;;23.47;59.37;97381.13;128285;1095;62008;-73
2021/07/14 22:24:34;;;;;;;17.93;12.30;;;;;;;23.40;59.74;97389.44;128156;1095;62076;-74
2021/07/14 22:27:02;;;;;;;21.67;13.17;;;;;;;23.52;59.28;97385.22;128202;1095;62462;-74
2021/07/14 22:29:28;;;;;;;19.37;13.37;;;;;;;23.66;59.16;97389.70;128069;1095;62933;-76
2021/07/14 22:31:57;;;;;;;22.43;13.30;;;;;;;23.43;59.65;97385.55;128250;1095;62456;-70
2021/07/14 22:34:23;;;;;;;15.00;12.53;;;;;;;23.32;60.32;97391.30;128313;1095;61205;-72
2021/07/14 22:36:53;;;;;;;19.17;13.47;;;;;;;23.15;60.56;97386.56;128041;1095;62499;-71
2021/07/14 22:39:19;;;;;;;16.53;12.80;;;;;;;23.16;60.39;97390.95;128351;1095;61204;-71
2021/07/14 22:41:46;;;;;;;18.13;12.97;;;;;;;23.06;60.89;97394.61;128254;1096;61241;-71
2021/07/14 22:44:13;;;;;;;17.47;12.40;;;;;;;23.13;59.91;97399.68;128236;1096;61978;-71
2021/07/14 22:46:48;;;;;;;21.30;12.30;;;;;;;23.23;59.85;97397.30;128332;1098;61217;-71
2021/07/14 22:49:14;;;;;;;17.27;12.00;;;;;;;23.42;58.81;97404.56;128200;1097;60970;-72
2021/07/14 22:51:40;;;;;;;15.03;11.57;;;;;;;23.59;58.38;97401.61;128275;1095;62456;-72
2021/07/14 22:54:08;;;;;;;14.97;10.93;;;;;;;23.62;58.34;97400.54;128161;1095;61038;-72
2021/07/14 22:56:34;;;;;;;18.13;11.80;;;;;;;23.65;58.07;97405.13;128223;1095;62452;-71
2021/07/14 22:59:00;;;;;;;15.97;11.80;;;;;;;23.54;58.22;97404.47;128188;1095;62567;-70
2021/07/14 23:01:27;;;;;;;18.27;11.60;;;;;;;23.57;58.39;97412.67;128144;1097;62451;-71
2021/07/14 23:03:53;;;;;;;21.13;12.03;;;;;;;23.58;58.33;97408.55;128208;1098;62883;-72
2021/07/14 23:06:19;;;;;;;16.17;11.80;;;;;;;23.56;58.27;97413.94;128235;1098;62455;-71
2021/07/14 23:08:45;;;;;;;13.97;11.17;;;;;;;23.53;58.24;97417.06;128250;1096;62430;-71
2021/07/14 23:11:12;;;;;;;17.50;11.47;;;;;;;23.47;58.63;97408.63;128332;1095;61140;-70
2021/07/14 23:13:40;;;;;;;20.20;12.03;;;;;;;23.46;58.62;97409.92;128206;1096;62466;-71
2021/07/14 23:16:08;;;;;;;14.40;11.47;;;;;;;23.34;59.21;97408.48;128162;1098;60920;-71
2021/07/14 23:18:34;;;;;;;19.20;12.33;;;;;;;23.38;59.12;97406.16;128248;1097;62437;-72
2021/07/14 23:21:04;;;;;;;15.53;12.20;;;;;;;23.37;59.14;97410.28;128077;1096;61788;-70
2021/07/14 23:23:33;;;;;;;18.28;11.58;;;;;;;23.36;59.34;97417.22;128296;1095;61199;-71
2021/07/14 23:25:59;;;;;;;17.40;12.50;;;;;;;23.21;59.73;97412.72;128227;1096;61269;-72
2021/07/14 23:28:26;;;;;;;18.67;12.20;;;;;;;23.11;60.21;97410.73;128153;1098;62463;-72
2021/07/14 23:30:53;;;;;;;23.37;12.43;;;;;;;23.21;59.77;97415.55;128071;1096;62543;-71
2021/07/14 23:33:20;;;;;;;18.27;12.97;;;;;;;23.18;59.91;97413.78;128231;1095;62438;-71
2021/07/14 23:35:46;;;;;;;15.37;12.43;;;;;;;23.18;59.97;97425.08;128293;1095;61261;-71
2021/07/14 23:38:12;;;;;;;16.07;12.27;;;;;;;23.17;59.97;97417.13;128186;1095;62442;-71
2021/07/14 23:40:38;;;;;;;17.43;13.60;;;;;;;23.15;59.84;97420.45;128144;1095;61012;-73
2021/07/14 23:43:04;;;;;;;15.87;12.53;;;;;;;23.11;59.98;97431.27;128166;1095;62458;-70
2021/07/14 23:45:31;;;;;;;18.43;12.90;;;;;;;22.97;60.55;97426.75;128113;1096;61216;-70
2021/07/14 23:48:00;;;;;;;20.00;14.50;;;;;;;22.92;60.89;97424.75;128168;1097;62500;-71
2021/07/14 23:50:27;;;;;;;20.43;14.40;;;;;;;22.87;61.16;97431.20;128214;1096;61747;-71
2021/07/14 23:52:55;;;;;;;20.60;15.23;;;;;;;22.85;61.40;97430.97;128232;1095;62452;-70
2021/07/14 23:55:25;;;;;;;16.60;14.80;;;;;;;22.87;61.33;97428.38;128115;1095;61209;-71
2021/07/14 23:57:52;;;;;;;21.37;15.50;;;;;;;22.85;61.43;97431.73;128231;1095;61181;-71
